Time;durP1;ratioP1;P1;durP2;ratioP2;P2;SDS_P1;SDS_P2;PMS_P1;PMS_P2;Temp;Humidity;BMP_temperature;BMP_pressure;BME280_temperature;BME280_humidity;BME280_pressure;Samples;Min_cycle;Max_cycle;Signal;HPM_P1;HPM_P2
2023/08/08 00:01:10;;;;;;;0.30;0.30;;;;;;;13.32;100.00;97794.03;5065593;28;20389;-59
2023/08/08 00:03:36;;;;;;;0.20;0.20;;;;;;;13.24;100.00;97778.88;5067491;28;20025;-60
2023/08/08 00:06:01;;;;;;;0.20;0.20;;;;;;;13.28;100.00;97772.53;5067277;28;20033;-61
2023/08/08 00:08:26;;;;;;;0.22;0.22;;;;;;;13.25;100.00;97783.13;5099833;28;20370;-61
2023/08/08 00:10:52;;;;;;;0.20;0.20;;;;;;;13.22;100.00;97775.53;5067184;28;20031;-61
2023/08/08 00:13:17;;;;;;;0.20;0.20;;;;;;;13.21;100.00;97776.47;5067189;28;20025;-60
2023/08/08 00:15:43;;;;;;;0.20;0.20;;;;;;;13.18;100.00;97776.66;5066059;28;20038;-60
2023/08/08 00:18:08;;;;;;;0.20;0.20;;;;;;;13.18;100.00;97787.06;5066785;28;20051;-60
2023/08/08 00:20:34;;;;;;;0.20;0.20;;;;;;;13.16;100.00;97781.97;5067075;28;20027;-60
2023/08/08 00:22:59;;;;;;;0.20;0.20;;;;;;;13.06;100.00;97762.59;5067268;28;20029;-61
2023/08/08 00:25:25;;;;;;;0.20;0.20;;;;;;;13.12;100.00;97781.31;5066976;28;20021;-60
2023/08/08 00:27:50;;;;;;;0.30;0.30;;;;;;;13.10;100.00;97788.34;5066901;28;20051;-60
2023/08/08 00:30:16;;;;;;;0.20;0.20;;;;;;;13.13;100.00;97774.34;5066852;28;20049;-61
2023/08/08 00:32:41;;;;;;;0.30;0.30;;;;;;;13.14;100.00;97787.25;5066462;28;20013;-60
2023/08/08 00:35:07;;;;;;;0.30;0.30;;;;;;;13.12;100.00;97778.69;5066970;28;20082;-60
2023/08/08 00:37:33;;;;;;;0.20;0.20;;;;;;;13.14;100.00;97771.63;5066618;28;20086;-61
2023/08/08 00:39:58;;;;;;;0.20;0.20;;;;;;;13.14;100.00;97771.63;5066868;28;20031;-60
2023/08/08 00:42:23;;;;;;;0.20;0.20;;;;;;;13.12;100.00;97776.09;5066595;28;20111;-60
2023/08/08 00:44:49;;;;;;;0.30;0.30;;;;;;;13.12;100.00;97772.63;5066857;28;20029;-60
2023/08/08 00:47:14;;;;;;;0.20;0.20;;;;;;;13.11;100.00;97771.81;5066336;28;20493;-61
2023/08/08 00:49:40;;;;;;;0.20;0.20;;;;;;;13.10;100.00;97756.28;5066416;28;20031;-61
2023/08/08 00:52:08;;;;;;;0.20;0.20;;;;;;;13.05;100.00;97756.53;5066334;28;20013;-59
2023/08/08 00:54:34;;;;;;;0.25;0.25;;;;;;;13.02;100.00;97747.16;5066659;28;20054;-61
2023/08/08 00:56:59;;;;;;;0.20;0.20;;;;;;;12.98;100.00;97756.09;5065576;28;20036;-60
2023/08/08 00:59:25;;;;;;;0.20;0.20;;;;;;;12.94;100.00;97765.00;5066243;28;20032;-60
2023/08/08 01:01:51;;;;;;;0.20;0.20;;;;;;;12.93;100.00;97773.78;5065952;28;20025;-60
2023/08/08 01:04:17;;;;;;;0.25;0.25;;;;;;;12.92;100.00;97769.50;5066257;28;20033;-60
2023/08/08 01:06:54;;;;;;;0.20;0.20;;;;;;;12.92;100.00;97760.84;5066139;28;20042;-60
2023/08/08 01:09:29;;;;;;;0.20;0.20;;;;;;;12.92;100.00;97766.91;5065772;28;20021;-61
2023/08/08 01:11:55;;;;;;;0.20;0.20;;;;;;;12.89;100.00;97767.91;5066060;28;20048;-60
2023/08/08 01:14:24;;;;;;;0.20;0.20;;;;;;;12.89;100.00;97762.69;5066238;28;20033;-60
2023/08/08 01:16:50;;;;;;;0.20;0.20;;;;;;;12.91;100.00;97759.19;5065858;28;20027;-60
2023/08/08 01:19:25;;;;;;;0.20;0.20;;;;;;;12.91;100.00;97754.78;5065997;28;20027;-60
2023/08/08 01:21:53;;;;;;;0.20;0.20;;;;;;;12.90;100.00;97750.53;5065889;28;20052;-60
2023/08/08 01:24:18;;;;;;;0.20;0.20;;;;;;;12.89;100.00;97754.06;5065596;28;20025;-61
2023/08/08 01:26:45;;;;;;;0.20;0.20;;;;;;;12.86;100.00;97755.06;5065609;28;20032;-61
2023/08/08 01:29:10;;;;;;;0.20;0.20;;;;;;;12.86;100.00;97759.47;5065631;28;20419;-61
2023/08/08 01:31:36;;;;;;;0.20;0.20;;;;;;;12.87;100.00;97754.16;5064974;28;20531;-61
2023/08/08 01:34:01;;;;;;;0.30;0.30;;;;;;;12.83;100.00;97755.25;5065365;28;20021;-61
2023/08/08 01:36:46;;;;;;;0.20;0.20;;;;;;;12.83;100.00;97746.59;5065326;28;20017;-60
2023/08/08 01:39:16;;;;;;;0.20;0.20;;;;;;;12.80;100.00;97744.19;5065588;28;20056;-60
2023/08/08 01:41:44;;;;;;;0.30;0.30;;;;;;;12.79;100.00;97751.19;5064214;28;20095;-61
2023/08/08 01:44:10;;;;;;;0.20;0.20;;;;;;;12.77;100.00;97748.66;5065449;28;20021;-61
2023/08/08 01:46:38;;;;;;;0.20;0.20;;;;;;;12.74;100.00;97750.59;5063872;28;20025;-61
2023/08/08 01:49:03;;;;;;;0.30;0.30;;;;;;;12.72;100.00;97736.84;5065485;28;20017;-61
2023/08/08 01:51:29;;;;;;;0.20;0.20;;;;;;;12.74;100.00;97743.66;5065099;28;20518;-61
2023/08/08 01:53:54;;;;;;;0.20;0.20;;;;;;;12.75;100.00;97752.28;5065057;28;20029;-61
2023/08/08 01:56:20;;;;;;;0.20;0.20;;;;;;;12.76;100.00;97739.16;5064410;28;20021;-60
2023/08/08 01:58:45;;;;;;;0.20;0.20;;;;;;;12.74;100.00;97732.38;5065227;28;20021;-61
2023/08/08 02:01:11;;;;;;;0.20;0.20;;;;;;;12.70;100.00;97733.50;5065291;28;20029;-61
2023/08/08 02:03:36;;;;;;;0.20;0.20;;;;;;;12.66;100.00;97739.81;5063648;28;20032;-60
2023/08/08 02:06:02;;;;;;;0.20;0.20;;;;;;;12.63;100.00;97740.84;5065180;28;20017;-61
2023/08/08 02:08:27;;;;;;;0.30;0.30;;;;;;;12.63;100.00;97741.69;5065206;28;20477;-61
2023/08/08 02:10:52;;;;;;;0.20;0.20;;;;;;;12.58;100.00;97733.31;5065147;28;20024;-60
2023/08/08 02:13:18;;;;;;;0.20;0.20;;;;;;;12.58;100.00;97735.91;5064688;28;20029;-61
2023/08/08 02:15:43;;;;;;;0.30;0.30;;;;;;;12.57;100.00;97729.03;5064488;28;20051;-61
2023/08/08 02:18:10;;;;;;;0.20;0.20;;;;;;;12.54;100.00;97737.00;5064896;28;20025;-60
2023/08/08 02:20:36;;;;;;;0.20;0.20;;;;;;;12.52;100.00;97726.69;5064930;28;20432;-60
2023/08/08 02:23:01;;;;;;;0.20;0.20;;;;;;;12.50;100.00;97707.75;5064918;28;20100;-61
2023/08/08 02:25:27;;;;;;;0.20;0.20;;;;;;;12.50;100.00;97717.31;5065023;28;20294;-61
2023/08/08 02:27:52;;;;;;;0.30;0.30;;;;;;;12.47;100.00;97717.50;5065032;28;20048;-60
2023/08/08 02:30:18;;;;;;;0.30;0.30;;;;;;;12.47;100.00;97713.16;5064871;28;20091;-59
2023/08/08 02:32:43;;;;;;;0.30;0.30;;;;;;;12.44;100.00;97718.53;5064593;28;20455;-59
2023/08/08 02:35:09;;;;;;;0.20;0.20;;;;;;;12.39;100.00;97703.19;5064979;28;20369;-61
2023/08/08 02:37:34;;;;;;;0.20;0.20;;;;;;;12.44;100.00;97712.47;5064482;28;20052;-60
2023/08/08 02:40:00;;;;;;;0.20;0.20;;;;;;;12.44;100.00;97715.09;5064693;28;20033;-60
2023/08/08 02:42:25;;;;;;;0.20;0.20;;;;;;;12.41;100.00;97710.06;5064309;28;20024;-60
2023/08/08 02:44:51;;;;;;;0.30;0.30;;;;;;;12.42;100.00;97709.13;5064623;28;20056;-58
2023/08/08 02:47:16;;;;;;;0.30;0.30;;;;;;;12.42;100.00;97717.78;5064912;28;20021;-60
2023/08/08 02:49:41;;;;;;;0.30;0.30;;;;;;;12.39;100.00;97703.19;5064627;28;20052;-60
2023/08/08 02:52:07;;;;;;;0.30;0.30;;;;;;;12.38;100.00;97705.88;5064593;28;20439;-60
2023/08/08 02:54:32;;;;;;;0.20;0.20;;;;;;;12.36;100.00;97705.13;5064538;28;20033;-60
2023/08/08 02:56:58;;;;;;;0.20;0.20;;;;;;;12.37;100.00;97701.59;5064464;28;20053;-60
2023/08/08 02:59:23;;;;;;;0.20;0.20;;;;;;;12.37;100.00;97704.19;5064774;28;20025;-60
2023/08/08 03:01:49;;;;;;;0.20;0.20;;;;;;;12.34;100.00;97697.44;5064257;28;20025;-60
2023/08/08 03:04:15;;;;;;;0.30;0.30;;;;;;;12.34;100.00;97710.44;5064401;28;20496;-60
2023/08/08 03:06:40;;;;;;;0.20;0.20;;;;;;;12.27;100.00;97696.09;5062957;28;20036;-60
2023/08/08 03:09:05;;;;;;;0.20;0.20;;;;;;;12.26;100.00;97684.88;5064542;28;20025;-61
2023/08/08 03:11:31;;;;;;;0.30;0.30;;;;;;;12.24;100.00;97683.28;5064445;28;20025;-61
2023/08/08 03:13:56;;;;;;;0.20;0.20;;;;;;;12.19;100.00;97680.94;5063068;28;20021;-61
2023/08/08 03:16:22;;;;;;;0.30;0.30;;;;;;;12.19;100.00;97680.94;5064008;28;20021;-60
2023/08/08 03:18:47;;;;;;;0.20;0.20;;;;;;;12.22;100.00;97680.75;5064838;28;20079;-59
2023/08/08 03:21:12;;;;;;;0.28;0.28;;;;;;;12.21;100.00;97688.66;5067877;28;20052;-60
2023/08/08 03:23:38;;;;;;;0.30;0.30;;;;;;;12.19;100.00;97686.16;5068101;28;20098;-60
2023/08/08 03:26:03;;;;;;;0.30;0.30;;;;;;;12.20;100.00;97679.19;5067757;28;20456;-60
2023/08/08 03:28:29;;;;;;;0.30;0.30;;;;;;;12.19;100.00;97685.34;5068057;28;20084;-60
2023/08/08 03:30:54;;;;;;;0.30;0.30;;;;;;;12.18;100.00;97689.69;5067891;28;20459;-58
2023/08/08 03:33:19;;;;;;;0.30;0.30;;;;;;;12.18;100.00;97694.03;5067672;28;20108;-61
2023/08/08 03:35:45;;;;;;;0.20;0.20;;;;;;;12.17;100.00;97694.97;5066780;28;20062;-61
2023/08/08 03:38:10;;;;;;;0.20;0.20;;;;;;;12.11;100.00;97685.75;5067627;28;20041;-61
2023/08/08 03:40:36;;;;;;;0.30;0.30;;;;;;;12.12;100.00;97685.66;5068056;28;20044;-61
2023/08/08 03:43:01;;;;;;;0.30;0.30;;;;;;;12.05;100.00;97671.34;5066303;28;20028;-59
2023/08/08 03:45:27;;;;;;;0.20;0.20;;;;;;;12.08;100.00;97675.53;5067660;28;20044;-60
2023/08/08 03:47:52;;;;;;;0.20;0.20;;;;;;;12.06;100.00;97660.00;5067470;28;20504;-60
2023/08/08 03:50:18;;;;;;;0.20;0.20;;;;;;;11.99;100.00;97656.09;5067642;28;20044;-60
2023/08/08 03:52:43;;;;;;;0.20;0.20;;;;;;;11.96;100.00;97651.91;5066312;28;20131;-60
2023/08/08 03:55:09;;;;;;;0.20;0.20;;;;;;;11.97;100.00;97652.72;5067435;28;20041;-61
2023/08/08 03:57:34;;;;;;;0.30;0.30;;;;;;;11.97;100.00;97660.53;5067272;28;20029;-60
2023/08/08 04:00:00;;;;;;;0.30;0.30;;;;;;;11.97;100.00;97663.13;5067432;28;20112;-61
2023/08/08 04:02:25;;;;;;;0.30;0.30;;;;;;;11.96;100.00;97649.31;5067118;28;20104;-60
2023/08/08 04:04:51;;;;;;;0.25;0.25;;;;;;;11.95;100.00;97641.63;5067216;28;20469;-60
2023/08/08 04:07:16;;;;;;;0.20;0.20;;;;;;;11.94;100.00;97645.13;5067148;28;20073;-61
2023/08/08 04:09:42;;;;;;;0.30;0.30;;;;;;;11.82;100.00;97639.69;5067312;28;20027;-61
2023/08/08 04:12:08;;;;;;;0.30;0.30;;;;;;;11.92;100.00;97657.38;5067362;28;20100;-61
2023/08/08 04:14:33;;;;;;;0.30;0.30;;;;;;;11.90;100.00;97655.69;5067290;28;20029;-61
2023/08/08 04:16:59;;;;;;;0.30;0.30;;;;;;;11.89;100.00;97648.84;5065795;28;20077;-61
2023/08/08 04:19:25;;;;;;;0.22;0.22;;;;;;;11.86;100.00;97649.03;5067193;28;20025;-61
2023/08/08 04:21:50;;;;;;;0.30;0.30;;;;;;;11.84;100.00;97643.06;5066904;28;20082;-61
2023/08/08 04:24:16;;;;;;;0.25;0.25;;;;;;;11.87;100.00;97635.09;5067245;28;20044;-60
2023/08/08 04:26:41;;;;;;;0.30;0.30;;;;;;;11.89;100.00;97638.44;5066782;28;20047;-61
2023/08/08 04:29:07;;;;;;;0.30;0.30;;;;;;;11.88;100.00;97643.72;5067188;28;20024;-61
2023/08/08 04:31:32;;;;;;;0.30;0.30;;;;;;;11.86;100.00;97633.41;5065450;28;20017;-61
2023/08/08 04:34:01;;;;;;;0.20;0.20;;;;;;;11.88;100.00;97628.13;5067077;28;20025;-61
2023/08/08 04:36:29;;;;;;;0.20;0.20;;;;;;;11.87;100.00;97629.88;5066628;28;20142;-60
2023/08/08 04:38:55;;;;;;;0.30;0.30;;;;;;;11.83;100.00;97612.81;5066720;28;20108;-60
2023/08/08 04:41:21;;;;;;;0.30;0.30;;;;;;;11.78;100.00;97614.81;5066757;28;20029;-62
2023/08/08 04:43:46;;;;;;;0.20;0.20;;;;;;;11.77;100.00;97607.97;5067121;28;20057;-61
2023/08/08 04:46:12;;;;;;;0.20;0.20;;;;;;;11.76;100.00;97606.28;5067184;28;20052;-61
2023/08/08 04:48:38;;;;;;;0.20;0.20;;;;;;;11.73;100.00;97603.84;5066892;28;20032;-61
2023/08/08 04:51:06;;;;;;;0.30;0.30;;;;;;;11.74;100.00;97613.34;5067042;28;20046;-62
2023/08/08 04:53:32;;;;;;;0.28;0.28;;;;;;;11.73;100.00;97601.25;5066921;28;20123;-61
2023/08/08 04:55:58;;;;;;;0.20;0.20;;;;;;;11.77;100.00;97605.38;5066436;28;20021;-61
2023/08/08 04:58:23;;;;;;;0.30;0.30;;;;;;;11.75;100.00;97615.84;5066970;28;20024;-61
2023/08/08 05:00:50;;;;;;;0.30;0.30;;;;;;;11.74;100.00;97603.75;5066627;28;20025;-61
2023/08/08 05:03:16;;;;;;;0.30;0.30;;;;;;;11.73;100.00;97607.31;5066498;28;20033;-61
2023/08/08 05:05:44;;;;;;;0.30;0.30;;;;;;;11.76;100.00;97598.47;5066742;28;20024;-60
2023/08/08 05:08:10;;;;;;;0.20;0.20;;;;;;;11.75;100.00;97608.06;5066351;28;20557;-59
2023/08/08 05:10:35;;;;;;;0.20;0.20;;;;;;;11.78;100.00;97591.44;5066702;28;20029;-62
2023/08/08 05:13:01;;;;;;;0.30;0.30;;;;;;;11.73;100.00;97567.47;5066597;28;20032;-62
2023/08/08 05:15:26;;;;;;;0.20;0.20;;;;;;;11.70;100.00;97576.28;5065285;28;20032;-61
2023/08/08 05:17:54;;;;;;;0.20;0.20;;;;;;;11.74;100.00;97559.59;5065078;28;20025;-61
2023/08/08 05:20:19;;;;;;;0.30;0.30;;;;;;;11.72;100.00;97578.81;5064981;28;20025;-61
2023/08/08 05:22:45;;;;;;;0.20;0.20;;;;;;;11.67;100.00;97570.44;5066131;28;20055;-61
2023/08/08 05:25:10;;;;;;;0.20;0.20;;;;;;;11.69;100.00;97569.44;5066421;28;20078;-61
2023/08/08 05:27:35;;;;;;;0.30;0.30;;;;;;;11.70;100.00;97550.31;5066191;28;20029;-62
2023/08/08 05:30:01;;;;;;;0.25;0.25;;;;;;;11.68;100.00;97551.34;5065921;28;20032;-62
2023/08/08 05:32:26;;;;;;;0.30;0.30;;;;;;;11.62;100.00;97550.75;5065825;28;20071;-60
2023/08/08 05:34:52;;;;;;;0.30;0.30;;;;;;;11.56;100.00;97553.72;5066086;28;20028;-60
2023/08/08 05:37:17;;;;;;;0.30;0.30;;;;;;;11.56;100.00;97547.69;5065697;28;20029;-60
2023/08/08 05:39:43;;;;;;;0.25;0.25;;;;;;;11.56;100.00;97552.88;5065682;28;20049;-61
2023/08/08 05:42:08;;;;;;;0.30;0.30;;;;;;;11.54;100.00;97539.97;5064823;28;20021;-61
2023/08/08 05:44:34;;;;;;;0.30;0.30;;;;;;;11.57;100.00;97550.19;5066074;28;20123;-61
2023/08/08 05:46:59;;;;;;;0.30;0.30;;;;;;;11.58;100.00;97530.25;5065382;28;20113;-61
2023/08/08 05:49:25;;;;;;;0.28;0.28;;;;;;;11.58;100.00;97546.66;5065606;28;20021;-60
2023/08/08 05:51:50;;;;;;;0.28;0.28;;;;;;;11.61;100.00;97541.28;5065896;28;20017;-61
2023/08/08 05:54:16;;;;;;;0.30;0.30;;;;;;;11.64;100.00;97520.34;5065906;28;20021;-61
2023/08/08 05:56:41;;;;;;;0.20;0.20;;;;;;;11.60;100.00;97515.38;5065621;28;20031;-60
2023/08/08 05:59:06;;;;;;;0.20;0.20;;;;;;;11.70;100.00;97533.88;5065875;28;20021;-61
2023/08/08 06:01:32;;;;;;;0.22;0.22;;;;;;;11.73;100.00;97523.28;5065677;28;20025;-61
2023/08/08 06:03:59;;;;;;;0.30;0.30;;;;;;;11.78;100.00;97516.91;5064268;28;20025;-62
2023/08/08 06:06:25;;;;;;;0.30;0.30;;;;;;;11.82;100.00;97521.91;5065572;28;20100;-60
2023/08/08 06:08:51;;;;;;;0.30;0.30;;;;;;;11.83;100.00;97528.78;5065694;28;20024;-60
2023/08/08 06:11:17;;;;;;;0.30;0.30;;;;;;;11.86;100.00;97523.41;5065568;28;20021;-61
2023/08/08 06:13:42;;;;;;;0.30;0.30;;;;;;;11.78;100.00;97516.91;5065686;28;20031;-61
2023/08/08 06:16:08;;;;;;;0.30;0.30;;;;;;;11.70;100.00;97495.72;5064334;28;20029;-61
2023/08/08 06:18:33;;;;;;;0.30;0.30;;;;;;;11.75;100.00;97513.66;5065420;28;20028;-61
2023/08/08 06:20:59;;;;;;;0.30;0.30;;;;;;;11.70;100.00;97492.28;5065596;28;20430;-61
2023/08/08 06:23:24;;;;;;;0.30;0.30;;;;;;;11.70;100.00;97479.28;5065496;28;20060;-61
2023/08/08 06:25:50;;;;;;;0.20;0.20;;;;;;;11.70;100.00;97476.69;5065540;28;20088;-61
2023/08/08 06:28:15;;;;;;;0.20;0.20;;;;;;;11.64;100.00;97478.75;5065297;28;20025;-60
2023/08/08 06:30:41;;;;;;;0.20;0.20;;;;;;;11.69;100.00;97470.69;5065429;28;20043;-61
2023/08/08 06:33:06;;;;;;;0.30;0.30;;;;;;;11.73;100.00;97471.31;5065260;28;20017;-61
2023/08/08 06:35:31;;;;;;;0.30;0.30;;;;;;;11.81;100.00;97463.91;5065324;28;20048;-61
2023/08/08 06:37:57;;;;;;;0.30;0.30;;;;;;;11.82;100.00;97468.16;5063727;28;20052;-62
2023/08/08 06:40:23;;;;;;;0.20;0.20;;;;;;;11.78;100.00;97453.69;5065306;28;20111;-61
2023/08/08 06:42:49;;;;;;;0.30;0.30;;;;;;;11.75;100.00;97438.28;5065315;28;20118;-61
2023/08/08 06:45:14;;;;;;;0.20;0.20;;;;;;;11.75;100.00;97438.28;5065246;28;20029;-60
2023/08/08 06:47:40;;;;;;;0.28;0.28;;;;;;;11.72;100.00;97421.13;5065185;28;20535;-60
2023/08/08 06:50:06;;;;;;;0.30;0.30;;;;;;;11.74;100.00;97424.44;5064243;28;20404;-61
2023/08/08 06:52:31;;;;;;;0.30;0.30;;;;;;;11.74;100.00;97415.81;5065035;28;20020;-61
2023/08/08 06:54:57;;;;;;;0.30;0.30;;;;;;;11.74;100.00;97421.03;5067808;28;20031;-61
2023/08/08 06:57:22;;;;;;;0.25;0.25;;;;;;;11.73;100.00;97398.53;5069064;28;20513;-62
2023/08/08 06:59:50;;;;;;;0.20;0.20;;;;;;;11.75;100.00;97389.75;5069251;28;20029;-61
2023/08/08 07:02:16;;;;;;;0.30;0.30;;;;;;;11.77;100.00;97382.66;5068699;28;20047;-61
2023/08/08 07:04:42;;;;;;;0.20;0.20;;;;;;;11.80;100.00;97383.41;5069128;28;20052;-61
2023/08/08 07:07:07;;;;;;;0.30;0.30;;;;;;;11.75;100.00;97381.94;5068840;28;20024;-61
2023/08/08 07:09:33;;;;;;;0.20;0.20;;;;;;;11.78;100.00;97373.13;5068871;28;20037;-60
2023/08/08 07:11:58;;;;;;;0.20;0.20;;;;;;;11.76;100.00;97377.56;5069070;28;20386;-59
2023/08/08 07:14:24;;;;;;;0.20;0.20;;;;;;;11.76;100.00;97373.22;5068898;28;20075;-61
2023/08/08 07:16:49;;;;;;;0.20;0.20;;;;;;;11.77;100.00;97384.44;5067364;28;20017;-60
2023/08/08 07:19:15;;;;;;;0.30;0.30;;;;;;;11.77;100.00;97359.28;5068945;28;20068;-61
2023/08/08 07:21:41;;;;;;;0.30;0.30;;;;;;;11.76;100.00;97357.63;5068850;28;20021;-60
2023/08/08 07:24:06;;;;;;;0.20;0.20;;;;;;;11.76;100.00;97349.81;5068792;28;20416;-60
2023/08/08 07:26:32;;;;;;;0.30;0.30;;;;;;;11.73;100.00;97334.41;5068598;28;20036;-60
2023/08/08 07:28:57;;;;;;;0.28;0.28;;;;;;;11.72;100.00;97329.31;5068608;28;20109;-62
2023/08/08 07:31:23;;;;;;;0.22;0.22;;;;;;;11.66;100.00;97351.34;5068663;28;20024;-60
2023/08/08 07:33:48;;;;;;;0.30;0.30;;;;;;;11.69;100.00;97350.31;5068338;28;20219;-61
2023/08/08 07:36:14;;;;;;;0.20;0.20;;;;;;;11.73;100.00;97342.22;5068832;28;20021;-61
2023/08/08 07:38:39;;;;;;;0.20;0.20;;;;;;;11.77;100.00;97337.66;5068301;28;20540;-61
2023/08/08 07:41:05;;;;;;;0.30;0.30;;;;;;;11.79;100.00;97320.19;5068433;28;20032;-61
2023/08/08 07:43:30;;;;;;;0.30;0.30;;;;;;;11.75;100.00;97311.78;5068311;28;20044;-61
2023/08/08 07:45:56;;;;;;;0.30;0.30;;;;;;;11.78;100.00;97313.34;5068313;28;20025;-61
2023/08/08 07:48:21;;;;;;;0.73;0.70;;;;;;;11.80;100.00;97327.06;5067997;28;20032;-61
2023/08/08 07:50:46;;;;;;;0.30;0.30;;;;;;;11.82;100.00;97317.41;5068373;28;20017;-60
2023/08/08 07:53:12;;;;;;;0.20;0.20;;;;;;;11.92;100.00;97327.25;5068220;28;20469;-61
2023/08/08 07:55:37;;;;;;;0.30;0.30;;;;;;;11.92;100.00;97340.22;5068207;28;20449;-61
2023/08/08 07:58:03;;;;;;;0.52;0.52;;;;;;;11.91;100.00;97331.59;5067941;28;20024;-62
2023/08/08 08:00:28;;;;;;;0.30;0.30;;;;;;;11.96;100.00;97326.09;5068083;28;20025;-60
2023/08/08 08:02:54;;;;;;;0.30;0.30;;;;;;;12.02;100.00;97284.09;5066450;28;20374;-61
2023/08/08 08:05:19;;;;;;;0.30;0.30;;;;;;;12.09;100.00;97272.38;5067704;28;20122;-61
2023/08/08 08:07:45;;;;;;;0.30;0.30;;;;;;;12.04;100.00;97323.84;5067692;28;20029;-62
2023/08/08 08:10:13;;;;;;;0.20;0.20;;;;;;;12.07;100.00;97302.84;5066591;28;20021;-61
2023/08/08 08:12:40;;;;;;;0.20;0.20;;;;;;;12.02;100.00;97303.16;5067911;28;20021;-63
2023/08/08 08:15:06;;;;;;;0.20;0.20;;;;;;;12.06;100.00;97331.56;5067875;28;20475;-61
2023/08/08 08:17:32;;;;;;;0.20;0.20;;;;;;;12.06;100.00;97329.75;5067329;28;20084;-62
2023/08/08 08:19:57;;;;;;;0.30;0.30;;;;;;;12.07;100.00;97339.25;5066308;28;20025;-62
2023/08/08 08:22:23;;;;;;;0.35;0.35;;;;;;;12.06;100.00;97311.56;5065973;28;20075;-61
2023/08/08 08:24:48;;;;;;;0.30;0.30;;;;;;;12.12;100.00;97342.41;5067671;28;20024;-61
2023/08/08 08:27:14;;;;;;;0.30;0.30;;;;;;;12.20;100.00;97344.53;5067303;28;20024;-60
2023/08/08 08:29:39;;;;;;;0.30;0.30;;;;;;;12.16;100.00;97329.22;5067543;28;20017;-60
2023/08/08 08:32:05;;;;;;;2.45;2.25;;;;;;;12.14;100.00;97342.34;5065730;28;20021;-61
2023/08/08 08:34:30;;;;;;;0.28;0.28;;;;;;;12.16;100.00;97353.44;5067443;28;20041;-61
2023/08/08 08:36:56;;;;;;;0.20;0.20;;;;;;;12.14;100.00;97339.72;5067481;28;20021;-62
2023/08/08 08:39:21;;;;;;;0.30;0.30;;;;;;;12.03;100.00;97316.97;5067183;28;20114;-60
2023/08/08 08:41:49;;;;;;;0.30;0.30;;;;;;;12.02;100.00;97351.69;5067276;28;20057;-62
2023/08/08 08:44:20;;;;;;;0.30;0.30;;;;;;;12.00;100.00;97364.81;5067265;28;20134;-61
2023/08/08 08:46:50;;;;;;;1.77;1.67;;;;;;;11.97;100.00;97348.56;5067038;28;20027;-62
2023/08/08 08:49:18;;;;;;;0.30;0.30;;;;;;;11.96;100.00;97365.09;5067289;28;20044;-62
2023/08/08 08:51:44;;;;;;;1.48;0.90;;;;;;;11.95;100.00;97346.06;5065711;28;20410;-60
2023/08/08 08:54:10;;;;;;;0.30;0.30;;;;;;;11.94;100.00;97333.16;5065900;28;20021;-62
2023/08/08 08:56:36;;;;;;;0.30;0.30;;;;;;;11.88;100.00;97370.78;5067022;28;20080;-62
2023/08/08 08:59:02;;;;;;;0.30;0.30;;;;;;;11.85;100.00;97356.19;5067079;28;20085;-62
2023/08/08 09:01:28;;;;;;;0.32;0.32;;;;;;;11.86;100.00;97367.44;5066967;28;20029;-62
2023/08/08 09:03:54;;;;;;;0.30;0.30;;;;;;;11.85;100.00;97381.38;5065490;28;20096;-61
2023/08/08 09:06:21;;;;;;;0.20;0.20;;;;;;;11.83;100.00;97363.28;5066838;28;20036;-62
2023/08/08 09:08:47;;;;;;;0.30;0.30;;;;;;;11.81;100.00;97365.13;5066784;28;20421;-61
2023/08/08 09:11:12;;;;;;;0.30;0.30;;;;;;;11.81;100.00;97354.72;5066715;28;20457;-61
2023/08/08 09:13:39;;;;;;;0.30;0.30;;;;;;;11.74;100.00;97363.84;5066671;28;20020;-61
2023/08/08 09:16:08;;;;;;;0.30;0.30;;;;;;;11.85;100.00;97371.78;5066285;28;20017;-62
2023/08/08 09:18:38;;;;;;;0.30;0.30;;;;;;;11.78;100.00;97360.13;5065745;28;20032;-62
2023/08/08 09:21:04;;;;;;;0.30;0.30;;;;;;;11.73;100.00;97373.41;5066548;28;20029;-62
2023/08/08 09:23:29;;;;;;;0.30;0.30;;;;;;;11.59;100.00;97369.06;5066452;28;20092;-62
2023/08/08 09:25:55;;;;;;;0.30;0.30;;;;;;;11.64;100.00;97385.22;5066406;28;20076;-62
2023/08/08 09:28:20;;;;;;;0.30;0.30;;;;;;;11.66;100.00;97377.31;5066359;28;20028;-62
2023/08/08 09:30:46;;;;;;;0.22;0.22;;;;;;;11.61;100.00;97395.75;5066356;28;20348;-62
2023/08/08 09:33:11;;;;;;;0.40;0.40;;;;;;;11.63;100.00;97406.06;5065965;28;20047;-61
2023/08/08 09:35:40;;;;;;;0.30;0.30;;;;;;;11.64;100.00;97408.59;5066366;28;20027;-60
2023/08/08 09:38:05;;;;;;;0.30;0.30;;;;;;;11.67;100.00;97417.13;5065949;28;20104;-61
2023/08/08 09:40:31;;;;;;;0.30;0.30;;;;;;;11.66;100.00;97418.91;5066152;28;20029;-64
2023/08/08 09:42:58;;;;;;;0.30;0.30;;;;;;;11.62;100.00;97436.44;5066041;28;20024;-61
2023/08/08 09:45:24;;;;;;;0.30;0.30;;;;;;;11.60;100.00;97434.84;5098394;28;20096;-62
2023/08/08 09:47:52;;;;;;;0.20;0.20;;;;;;;11.60;100.00;97414.06;5065730;28;20044;-62
2023/08/08 09:50:18;;;;;;;0.30;0.30;;;;;;;11.60;100.00;97450.44;5066000;28;20021;-62
2023/08/08 09:52:44;;;;;;;0.30;0.30;;;;;;;11.62;100.00;97438.19;5064648;28;20029;-62
2023/08/08 09:55:11;;;;;;;0.30;0.30;;;;;;;11.65;100.00;97438.84;5066035;28;20033;-62
2023/08/08 09:57:39;;;;;;;0.30;0.30;;;;;;;11.69;100.00;97449.91;5065865;28;20484;-61
2023/08/08 10:00:10;;;;;;;0.30;0.30;;;;;;;11.69;100.00;97433.47;5048035;28;20096;-63
2023/08/08 10:02:36;;;;;;;0.30;0.30;;;;;;;11.68;100.00;97456.00;5065405;28;20021;-62
2023/08/08 10:05:03;;;;;;;0.30;0.30;;;;;;;11.69;100.00;97449.91;5064450;28;20164;-62
2023/08/08 10:07:30;;;;;;;0.30;0.30;;;;;;;11.70;100.00;97487.09;5064313;28;20412;-61
2023/08/08 10:09:56;;;;;;;0.30;0.30;;;;;;;11.68;100.00;97469.00;5065596;28;20021;-63
2023/08/08 10:12:23;;;;;;;0.20;0.20;;;;;;;11.62;100.00;97462.41;5065613;28;20021;-62
2023/08/08 10:14:49;;;;;;;0.25;0.25;;;;;;;11.59;100.00;97480.78;5065641;28;20025;-62
2023/08/08 10:17:15;;;;;;;0.30;0.30;;;;;;;11.57;100.00;97490.44;5064006;28;20020;-62
2023/08/08 10:19:50;;;;;;;0.20;0.20;;;;;;;11.57;100.00;97492.19;5065600;28;20039;-62
2023/08/08 10:22:22;;;;;;;0.30;0.30;;;;;;;11.54;100.00;97482.81;5065503;28;20385;-62
2023/08/08 10:24:51;;;;;;;0.20;0.20;;;;;;;11.52;100.00;97519.28;5065633;28;20020;-63
2023/08/08 10:27:36;;;;;;;0.30;0.30;;;;;;;11.46;100.00;97485.88;5065296;28;20032;-63
2023/08/08 10:30:05;;;;;;;0.30;0.30;;;;;;;11.46;100.00;97511.84;5064171;28;20021;-62
2023/08/08 10:32:39;;;;;;;0.30;0.30;;;;;;;11.44;100.00;97513.69;5065413;28;20040;-62
2023/08/08 10:35:06;;;;;;;0.30;0.30;;;;;;;11.41;100.00;97490.50;5065576;28;20025;-65
2023/08/08 10:37:32;;;;;;;0.30;0.30;;;;;;;11.40;100.00;97518.25;5065095;28;20052;-62
2023/08/08 10:39:59;;;;;;;0.20;0.20;;;;;;;11.42;100.00;97538.09;5065361;28;20055;-61
2023/08/08 10:42:27;;;;;;;0.30;0.30;;;;;;;11.49;100.00;97523.81;5065449;28;20025;-62
2023/08/08 10:44:54;;;;;;;0.20;0.20;;;;;;;11.44;100.00;97531.88;5065251;28;20036;-62
2023/08/08 10:47:35;;;;;;;0.30;0.30;;;;;;;11.52;100.00;97539.22;5064856;28;20025;-62
2023/08/08 10:50:15;;;;;;;0.22;0.22;;;;;;;11.46;100.00;97537.00;5063790;28;20017;-61
2023/08/08 10:52:52;;;;;;;0.20;0.20;;;;;;;11.47;100.00;97546.47;5065243;28;20028;-62
2023/08/08 10:55:31;;;;;;;0.30;0.30;;;;;;;11.48;100.00;97553.34;5064063;28;20410;-62
2023/08/08 10:58:07;;;;;;;0.30;0.30;;;;;;;11.52;100.00;97567.81;5065204;28;20021;-63
2023/08/08 11:00:35;;;;;;;0.20;0.20;;;;;;;11.54;100.00;97560.75;5065190;28;20029;-60
2023/08/08 11:03:01;;;;;;;0.30;0.30;;;;;;;11.55;100.00;97574.59;5064372;28;20025;-62
2023/08/08 11:05:31;;;;;;;0.30;0.30;;;;;;;11.57;100.00;97546.75;5064769;28;20029;-62
2023/08/08 11:07:57;;;;;;;0.20;0.20;;;;;;;11.58;100.00;97575.25;5064639;28;20073;-61
2023/08/08 11:10:22;;;;;;;0.22;0.22;;;;;;;11.61;100.00;97561.25;5064786;28;20032;-63
2023/08/08 11:12:57;;;;;;;0.20;0.20;;;;;;;11.61;100.00;97577.66;5064838;28;20032;-61
2023/08/08 11:15:23;;;;;;;0.20;0.20;;;;;;;11.64;100.00;97576.66;5064953;28;20108;-61
2023/08/08 11:17:49;;;;;;;0.20;0.20;;;;;;;11.69;100.00;97579.84;5064397;28;20075;-62
2023/08/08 11:20:14;;;;;;;0.20;0.20;;;;;;;11.68;100.00;97577.31;5064662;28;20028;-62